sensor_id;sensor_type;location;lat;lon;timestamp;P1;durP1;ratioP1;P2;durP2;ratioP2
57313;SDS011;53202;50.976;18.216;2023-03-01T00:03:03;65.60;;;26.90;;
57313;SDS011;53202;50.976;18.216;2023-03-01T00:12:47;84.90;;;39.70;;
57313;SDS011;53202;50.976;18.216;2023-03-01T00:22:39;70.40;;;29.60;;
57313;SDS011;53202;50.976;18.216;2023-03-01T00:32:23;92.20;;;29.70;;
57313;SDS011;53202;50.976;18.216;2023-03-01T00:42:13;156.00;;;34.20;;
57313;SDS011;53202;50.976;18.216;2023-03-01T00:51:59;83.80;;;39.90;;
57313;SDS011;53202;50.976;18.216;2023-03-01T01:01:42;63.00;;;30.90;;
57313;SDS011;53202;50.976;18.216;2023-03-01T01:11:30;68.30;;;27.90;;
57313;SDS011;53202;50.976;18.216;2023-03-01T01:13:57;123.50;;;44.00;;
57313;SDS011;53202;50.976;18.216;2023-03-01T01:23:43;145.30;;;68.10;;
57313;SDS011;53202;50.976;18.216;2023-03-01T01:33:29;274.00;;;108.20;;
57313;SDS011;53202;50.976;18.216;2023-03-01T01:35:56;243.50;;;80.30;;
57313;SDS011;53202;50.976;18.216;2023-03-01T01:45:48;291.30;;;124.30;;
57313;SDS011;53202;50.976;18.216;2023-03-01T01:55:39;122.10;;;39.70;;
57313;SDS011;53202;50.976;18.216;2023-03-01T02:15:32;95.30;;;48.50;;
57313;SDS011;53202;50.976;18.216;2023-03-01T02:25:29;73.00;;;34.60;;
57313;SDS011;53202;50.976;18.216;2023-03-01T02:35:32;100.60;;;38.20;;
57313;SDS011;53202;50.976;18.216;2023-03-01T02:45:20;102.10;;;46.40;;
57313;SDS011;53202;50.976;18.216;2023-03-01T02:55:30;71.10;;;38.30;;
57313;SDS011;53202;50.976;18.216;2023-03-01T03:05:19;158.30;;;76.90;;
57313;SDS011;53202;50.976;18.216;2023-03-01T03:15:14;68.30;;;27.40;;
57313;SDS011;53202;50.976;18.216;2023-03-01T03:25:03;85.90;;;30.30;;
57313;SDS011;53202;50.976;18.216;2023-03-01T03:34:48;111.10;;;37.60;;
57313;SDS011;53202;50.976;18.216;2023-03-01T03:44:50;93.80;;;44.20;;
57313;SDS011;53202;50.976;18.216;2023-03-01T03:54:40;98.80;;;33.70;;
57313;SDS011;53202;50.976;18.216;2023-03-01T04:04:25;143.60;;;47.10;;
57313;SDS011;53202;50.976;18.216;2023-03-01T04:14:09;116.20;;;33.20;;
57313;SDS011;53202;50.976;18.216;2023-03-01T04:23:53;155.60;;;44.90;;
57313;SDS011;53202;50.976;18.216;2023-03-01T04:33:42;108.60;;;50.90;;
57313;SDS011;53202;50.976;18.216;2023-03-01T04:43:29;141.90;;;49.60;;
57313;SDS011;53202;50.976;18.216;2023-03-01T04:53:20;75.40;;;31.30;;
57313;SDS011;53202;50.976;18.216;2023-03-01T05:03:03;82.20;;;35.10;;
57313;SDS011;53202;50.976;18.216;2023-03-01T05:12:51;55.30;;;31.80;;
57313;SDS011;53202;50.976;18.216;2023-03-01T05:22:37;92.00;;;36.50;;
57313;SDS011;53202;50.976;18.216;2023-03-01T05:32:22;71.40;;;24.90;;
57313;SDS011;53202;50.976;18.216;2023-03-01T05:42:09;109.00;;;52.50;;
57313;SDS011;53202;50.976;18.216;2023-03-01T05:51:53;131.20;;;43.90;;
57313;SDS011;53202;50.976;18.216;2023-03-01T06:01:39;91.70;;;50.40;;
57313;SDS011;53202;50.976;18.216;2023-03-01T06:11:29;165.70;;;59.80;;
57313;SDS011;53202;50.976;18.216;2023-03-01T06:21:12;199.90;;;62.50;;
57313;SDS011;53202;50.976;18.216;2023-03-01T06:30:57;114.70;;;49.70;;
57313;SDS011;53202;50.976;18.216;2023-03-01T06:40:44;155.80;;;60.50;;
57313;SDS011;53202;50.976;18.216;2023-03-01T06:50:29;87.80;;;40.20;;
57313;SDS011;53202;50.976;18.216;2023-03-01T07:00:14;103.90;;;47.20;;
57313;SDS011;53202;50.976;18.216;2023-03-01T07:09:58;81.00;;;36.20;;
57313;SDS011;53202;50.976;18.216;2023-03-01T07:19:42;117.30;;;39.60;;
57313;SDS011;53202;50.976;18.216;2023-03-01T07:29:26;148.20;;;63.80;;
57313;SDS011;53202;50.976;18.216;2023-03-01T07:39:11;120.90;;;73.70;;
57313;SDS011;53202;50.976;18.216;2023-03-01T07:48:55;127.00;;;75.80;;
57313;SDS011;53202;50.976;18.216;2023-03-01T07:58:43;144.00;;;68.90;;
57313;SDS011;53202;50.976;18.216;2023-03-01T08:08:29;131.90;;;68.60;;
57313;SDS011;53202;50.976;18.216;2023-03-01T08:18:15;143.20;;;68.70;;
57313;SDS011;53202;50.976;18.216;2023-03-01T08:27:59;114.40;;;55.40;;
57313;SDS011;53202;50.976;18.216;2023-03-01T08:37:43;153.70;;;71.90;;
57313;SDS011;53202;50.976;18.216;2023-03-01T08:47:28;141.30;;;73.60;;
57313;SDS011;53202;50.976;18.216;2023-03-01T08:57:13;118.80;;;70.80;;
57313;SDS011;53202;50.976;18.216;2023-03-01T09:07:00;74.70;;;41.70;;
57313;SDS011;53202;50.976;18.216;2023-03-01T09:16:43;68.50;;;35.70;;
57313;SDS011;53202;50.976;18.216;2023-03-01T09:26:29;89.50;;;41.60;;
57313;SDS011;53202;50.976;18.216;2023-03-01T09:43:40;73.10;;;39.10;;
57313;SDS011;53202;50.976;18.216;2023-03-01T09:53:34;72.30;;;36.30;;
57313;SDS011;53202;50.976;18.216;2023-03-01T10:03:43;39.00;;;25.00;;
57313;SDS011;53202;50.976;18.216;2023-03-01T10:13:51;42.60;;;20.80;;
57313;SDS011;53202;50.976;18.216;2023-03-01T10:24:10;71.40;;;31.50;;
57313;SDS011;53202;50.976;18.216;2023-03-01T10:34:22;69.30;;;29.50;;
57313;SDS011;53202;50.976;18.216;2023-03-01T10:54:50;45.70;;;27.80;;
57313;SDS011;53202;50.976;18.216;2023-03-01T11:04:59;40.60;;;27.20;;
57313;SDS011;53202;50.976;18.216;2023-03-01T11:15:24;37.60;;;21.20;;
57313;SDS011;53202;50.976;18.216;2023-03-01T11:25:19;33.30;;;24.70;;
57313;SDS011;53202;50.976;18.216;2023-03-01T11:35:15;37.10;;;26.60;;
57313;SDS011;53202;50.976;18.216;2023-03-01T11:45:18;35.80;;;26.20;;
57313;SDS011;53202;50.976;18.216;2023-03-01T11:55:46;35.50;;;19.30;;
57313;SDS011;53202;50.976;18.216;2023-03-01T12:06:19;25.80;;;20.70;;
57313;SDS011;53202;50.976;18.216;2023-03-01T12:16:52;74.20;;;31.40;;
57313;SDS011;53202;50.976;18.216;2023-03-01T12:19:30;40.20;;;26.20;;
57313;SDS011;53202;50.976;18.216;2023-03-01T12:29:41;24.30;;;19.70;;
57313;SDS011;53202;50.976;18.216;2023-03-01T12:50:47;45.10;;;25.40;;
57313;SDS011;53202;50.976;18.216;2023-03-01T13:01:00;27.30;;;17.50;;
57313;SDS011;53202;50.976;18.216;2023-03-01T13:11:11;28.00;;;19.40;;
57313;SDS011;53202;50.976;18.216;2023-03-01T13:18:46;40.60;;;26.80;;
57313;SDS011;53202;50.976;18.216;2023-03-01T13:28:38;25.70;;;18.50;;
57313;SDS011;53202;50.976;18.216;2023-03-01T13:39:29;32.90;;;20.10;;
57313;SDS011;53202;50.976;18.216;2023-03-01T13:49:44;56.50;;;30.40;;
57313;SDS011;53202;50.976;18.216;2023-03-01T14:07:10;23.50;;;15.80;;
57313;SDS011;53202;50.976;18.216;2023-03-01T14:17:12;31.70;;;17.50;;
57313;SDS011;53202;50.976;18.216;2023-03-01T14:27:20;19.60;;;15.10;;
57313;SDS011;53202;50.976;18.216;2023-03-01T14:37:30;20.00;;;13.30;;
57313;SDS011;53202;50.976;18.216;2023-03-01T14:47:20;34.70;;;15.60;;
57313;SDS011;53202;50.976;18.216;2023-03-01T14:57:19;45.00;;;18.10;;
57313;SDS011;53202;50.976;18.216;2023-03-01T15:07:12;25.90;;;14.50;;
57313;SDS011;53202;50.976;18.216;2023-03-01T15:17:26;24.20;;;18.30;;
57313;SDS011;53202;50.976;18.216;2023-03-01T15:27:16;28.00;;;19.70;;
57313;SDS011;53202;50.976;18.216;2023-03-01T15:37:47;29.70;;;19.30;;
57313;SDS011;53202;50.976;18.216;2023-03-01T15:47:53;60.90;;;27.20;;
57313;SDS011;53202;50.976;18.216;2023-03-01T15:58:03;93.30;;;39.80;;
57313;SDS011;53202;50.976;18.216;2023-03-01T16:07:51;49.90;;;26.50;;
57313;SDS011;53202;50.976;18.216;2023-03-01T16:10:18;64.10;;;34.80;;
57313;SDS011;53202;50.976;18.216;2023-03-01T16:20:06;67.90;;;31.50;;
57313;SDS011;53202;50.976;18.216;2023-03-01T16:29:50;50.70;;;28.30;;
57313;SDS011;53202;50.976;18.216;2023-03-01T16:39:35;47.20;;;22.10;;
57313;SDS011;53202;50.976;18.216;2023-03-01T16:49:21;89.60;;;44.00;;
57313;SDS011;53202;50.976;18.216;2023-03-01T16:59:06;54.30;;;22.60;;
57313;SDS011;53202;50.976;18.216;2023-03-01T17:08:58;81.60;;;34.80;;
57313;SDS011;53202;50.976;18.216;2023-03-01T17:18:45;22.40;;;10.40;;
57313;SDS011;53202;50.976;18.216;2023-03-01T17:28:30;90.00;;;44.80;;
57313;SDS011;53202;50.976;18.216;2023-03-01T17:38:16;132.40;;;54.60;;
57313;SDS011;53202;50.976;18.216;2023-03-01T17:48:08;144.10;;;57.00;;
57313;SDS011;53202;50.976;18.216;2023-03-01T17:57:57;69.10;;;21.50;;
57313;SDS011;53202;50.976;18.216;2023-03-01T18:07:41;127.60;;;60.60;;
57313;SDS011;53202;50.976;18.216;2023-03-01T18:17:25;198.20;;;73.00;;
57313;SDS011;53202;50.976;18.216;2023-03-01T18:27:09;184.40;;;86.20;;
57313;SDS011;53202;50.976;18.216;2023-03-01T18:36:53;167.00;;;79.30;;
57313;SDS011;53202;50.976;18.216;2023-03-01T18:54:00;58.90;;;33.10;;
57313;SDS011;53202;50.976;18.216;2023-03-01T19:03:48;164.00;;;68.20;;
57313;SDS011;53202;50.976;18.216;2023-03-01T19:13:34;186.80;;;72.40;;
57313;SDS011;53202;50.976;18.216;2023-03-01T19:23:25;56.20;;;36.90;;
57313;SDS011;53202;50.976;18.216;2023-03-01T19:33:14;191.30;;;73.50;;
57313;SDS011;53202;50.976;18.216;2023-03-01T19:43:00;156.30;;;64.40;;
57313;SDS011;53202;50.976;18.216;2023-03-01T19:52:43;194.10;;;81.60;;
57313;SDS011;53202;50.976;18.216;2023-03-01T20:02:28;226.20;;;92.20;;
57313;SDS011;53202;50.976;18.216;2023-03-01T20:12:12;208.90;;;85.30;;
57313;SDS011;53202;50.976;18.216;2023-03-01T20:21:56;133.40;;;36.00;;
57313;SDS011;53202;50.976;18.216;2023-03-01T20:31:40;128.20;;;44.10;;
57313;SDS011;53202;50.976;18.216;2023-03-01T20:41:24;176.60;;;36.70;;
57313;SDS011;53202;50.976;18.216;2023-03-01T20:51:15;127.70;;;45.20;;
57313;SDS011;53202;50.976;18.216;2023-03-01T21:01:02;102.80;;;40.80;;
57313;SDS011;53202;50.976;18.216;2023-03-01T21:10:49;116.00;;;44.90;;
57313;SDS011;53202;50.976;18.216;2023-03-01T21:20:33;80.50;;;31.40;;
57313;SDS011;53202;50.976;18.216;2023-03-01T21:30:25;233.80;;;102.20;;
57313;SDS011;53202;50.976;18.216;2023-03-01T21:40:09;229.40;;;90.70;;
57313;SDS011;53202;50.976;18.216;2023-03-01T21:49:55;338.50;;;112.40;;
57313;SDS011;53202;50.976;18.216;2023-03-01T21:59:41;340.50;;;117.20;;
57313;SDS011;53202;50.976;18.216;2023-03-01T22:09:28;280.90;;;77.40;;
57313;SDS011;53202;50.976;18.216;2023-03-01T22:19:19;221.90;;;76.70;;
57313;SDS011;53202;50.976;18.216;2023-03-01T22:29:09;253.10;;;61.40;;
57313;SDS011;53202;50.976;18.216;2023-03-01T22:38:54;159.70;;;55.80;;
57313;SDS011;53202;50.976;18.216;2023-03-01T22:48:47;122.00;;;57.20;;
57313;SDS011;53202;50.976;18.216;2023-03-01T22:58:37;178.50;;;55.80;;
57313;SDS011;53202;50.976;18.216;2023-03-01T23:08:25;175.80;;;56.60;;
57313;SDS011;53202;50.976;18.216;2023-03-01T23:18:09;186.80;;;62.30;;
57313;SDS011;53202;50.976;18.216;2023-03-01T23:27:54;142.10;;;43.90;;
57313;SDS011;53202;50.976;18.216;2023-03-01T23:37:37;259.60;;;77.50;;
57313;SDS011;53202;50.976;18.216;2023-03-01T23:47:24;331.50;;;129.10;;
57313;SDS011;53202;50.976;18.216;2023-03-01T23:57:08;130.10;;;46.50;;
